Time;durP1;ratioP1;P1;durP2;ratioP2;P2;SDS_P1;SDS_P2;PMS_P1;PMS_P2;Temp;Humidity;BMP_temperature;BMP_pressure;BME280_temperature;BME280_humidity;BME280_pressure;Samples;Min_cycle;Max_cycle;Signal;HPM_P1;HPM_P2
2023/06/22 00:00:53;;;;;;;8.40;6.80;;;20.50;99.90;;;;;;5058165;28;20285;-78
2023/06/22 00:03:20;;;;;;;10.32;6.45;;;20.40;99.90;;;;;;5076177;28;20174;-78
2023/06/22 00:05:46;;;;;;;8.73;7.03;;;20.30;99.90;;;;;;5058040;28;20267;-79
2023/06/22 00:08:12;;;;;;;8.13;5.80;;;20.30;99.90;;;;;;5057977;28;20208;-78
2023/06/22 00:10:38;;;;;;;11.27;7.00;;;20.30;99.90;;;;;;5076040;28;20174;-79
2023/06/22 00:13:07;;;;;;;10.73;8.02;;;20.30;99.90;;;;;;5058093;28;20630;-79
2023/06/22 00:15:33;;;;;;;9.95;6.65;;;20.30;99.90;;;;;;5075815;28;20653;-79
2023/06/22 00:17:59;;;;;;;10.32;7.75;;;20.20;99.90;;;;;;5058063;28;20284;-78
2023/06/22 00:20:29;;;;;;;9.27;7.90;;;20.10;99.90;;;;;;5076025;28;20173;-78
2023/06/22 00:22:56;;;;;;;11.30;6.95;;;20.10;99.90;;;;;;5075947;28;20249;-78
2023/06/22 00:25:22;;;;;;;10.05;7.65;;;20.10;99.90;;;;;;5075775;28;20177;-78
2023/06/22 00:27:48;;;;;;;11.10;7.88;;;20.00;99.90;;;;;;5075805;28;20261;-78
2023/06/22 00:30:16;;;;;;;10.38;7.57;;;20.00;99.90;;;;;;5075614;28;20532;-79
2023/06/22 00:32:43;;;;;;;9.77;8.18;;;19.90;99.90;;;;;;5057766;28;20277;-78
2023/06/22 00:35:10;;;;;;;15.15;8.07;;;19.90;99.90;;;;;;5057214;28;20185;-78
2023/06/22 00:37:36;;;;;;;11.48;7.97;;;19.80;99.90;;;;;;5057530;28;20620;-78
2023/06/22 00:40:04;;;;;;;8.90;7.65;;;19.80;99.90;;;;;;5057563;28;20231;-79
2023/06/22 00:42:30;;;;;;;15.23;8.80;;;19.70;99.90;;;;;;5075489;28;20166;-79
2023/06/22 00:44:56;;;;;;;10.57;8.43;;;19.60;99.90;;;;;;5075981;28;20173;-79
2023/06/22 00:47:22;;;;;;;9.02;8.07;;;19.50;99.90;;;;;;5075423;28;20190;-79
2023/06/22 00:49:52;;;;;;;9.25;7.30;;;19.60;99.90;;;;;;5057645;28;20216;-79
2023/06/22 00:52:21;;;;;;;9.65;7.70;;;19.60;99.90;;;;;;5075628;28;20224;-79
2023/06/22 00:54:48;;;;;;;9.75;7.32;;;19.70;99.90;;;;;;5057379;28;20626;-79
2023/06/22 00:57:18;;;;;;;9.75;7.47;;;19.80;99.90;;;;;;5057396;28;20200;-79
2023/06/22 00:59:44;;;;;;;13.57;7.88;;;19.90;99.90;;;;;;5057282;28;20185;-79
2023/06/22 01:02:10;;;;;;;8.98;7.80;;;20.00;99.90;;;;;;5075358;28;20188;-79
2023/06/22 01:04:38;;;;;;;8.90;7.53;;;20.10;99.90;;;;;;5056815;28;20181;-79
2023/06/22 01:07:25;;;;;;;11.13;7.88;;;20.10;99.90;;;;;;5074669;28;20202;-78
2023/06/22 01:10:14;;;;;;;8.95;8.00;;;20.10;99.90;;;;;;5056858;28;20747;-78
2023/06/22 01:12:45;;;;;;;10.23;7.25;;;20.20;99.90;;;;;;5075155;28;20634;-78
2023/06/22 01:15:18;;;;;;;10.38;7.55;;;20.10;99.90;;;;;;5056658;28;20536;-79
2023/06/22 01:17:45;;;;;;;9.70;7.68;;;20.10;99.90;;;;;;5075066;28;20165;-78
2023/06/22 01:20:14;;;;;;;9.15;7.70;;;20.00;99.90;;;;;;5073947;28;20253;-78
2023/06/22 01:23:12;;;;;;;10.93;7.80;;;20.00;99.90;;;;;;5056415;28;20201;-78
2023/06/22 01:26:04;;;;;;;10.80;7.60;;;20.00;99.90;;;;;;5041554;28;20217;-78
2023/06/22 01:28:41;;;;;;;12.35;7.70;;;19.90;99.90;;;;;;5074593;28;20193;-78
2023/06/22 01:31:08;;;;;;;11.13;8.23;;;19.90;99.90;;;;;;5074536;28;20619;-78
2023/06/22 01:33:39;;;;;;;9.85;7.50;;;19.80;99.90;;;;;;5056665;28;20180;-78
2023/06/22 01:36:06;;;;;;;8.95;7.47;;;19.80;99.90;;;;;;5074539;28;20686;-79
2023/06/22 01:38:33;;;;;;;13.07;7.57;;;19.80;99.90;;;;;;5074932;28;20174;-78
2023/06/22 01:41:01;;;;;;;9.20;7.22;;;19.80;99.90;;;;;;5056303;28;20180;-78
2023/06/22 01:43:28;;;;;;;9.88;7.30;;;19.80;99.90;;;;;;5056595;28;20188;-78
2023/06/22 01:45:55;;;;;;;11.93;8.32;;;19.80;99.90;;;;;;5056338;28;20201;-79
2023/06/22 01:48:22;;;;;;;8.70;7.50;;;19.70;99.90;;;;;;5074766;28;20206;-78
2023/06/22 01:50:48;;;;;;;9.43;6.85;;;19.60;99.90;;;;;;5056256;28;20174;-78
2023/06/22 01:53:14;;;;;;;10.50;7.55;;;19.60;99.90;;;;;;5074394;28;20240;-79
2023/06/22 01:55:40;;;;;;;10.45;7.78;;;19.60;99.90;;;;;;5074408;28;20194;-78
2023/06/22 01:58:06;;;;;;;8.95;7.50;;;19.70;99.90;;;;;;5056020;28;20589;-78
2023/06/22 02:00:38;;;;;;;10.98;8.30;;;19.60;99.90;;;;;;5056445;28;20170;-78
2023/06/22 02:03:26;;;;;;;9.80;7.10;;;19.60;99.90;;;;;;5074744;28;20188;-78
2023/06/22 02:06:01;;;;;;;11.02;7.80;;;19.60;99.90;;;;;;5074233;28;20209;-79
2023/06/22 02:08:35;;;;;;;10.27;8.13;;;19.60;99.90;;;;;;5074052;28;20189;-79
2023/06/22 02:11:02;;;;;;;9.50;7.43;;;19.80;99.90;;;;;;5074050;28;20158;-78
2023/06/22 02:13:28;;;;;;;8.30;7.15;;;19.90;99.90;;;;;;5056531;28;20205;-78
2023/06/22 02:15:54;;;;;;;10.60;7.22;;;19.80;99.90;;;;;;5074573;28;20190;-78
2023/06/22 02:18:20;;;;;;;9.50;7.53;;;19.80;99.90;;;;;;5056907;28;20177;-79
2023/06/22 02:20:46;;;;;;;11.73;7.45;;;19.80;99.90;;;;;;5056908;28;20269;-79
2023/06/22 02:23:12;;;;;;;11.25;7.57;;;19.70;99.90;;;;;;5077843;28;20174;-78
2023/06/22 02:25:38;;;;;;;12.38;7.88;;;19.70;99.90;;;;;;5060617;28;20205;-78
2023/06/22 02:28:04;;;;;;;9.52;7.47;;;19.60;99.90;;;;;;5056722;28;20581;-78
2023/06/22 02:30:30;;;;;;;9.43;7.47;;;19.60;99.90;;;;;;5074640;28;20173;-78
2023/06/22 02:32:58;;;;;;;11.27;8.15;;;19.50;99.90;;;;;;5060077;28;20174;-79
2023/06/22 02:35:31;;;;;;;10.65;8.70;;;19.50;99.90;;;;;;5078219;28;20182;-78
2023/06/22 02:38:00;;;;;;;11.90;8.52;;;19.40;99.90;;;;;;5059980;28;20220;-78
2023/06/22 02:40:26;;;;;;;11.82;8.18;;;19.40;99.90;;;;;;5059806;28;20178;-78
2023/06/22 02:42:52;;;;;;;12.00;7.75;;;19.40;99.90;;;;;;5059871;28;20227;-78
2023/06/22 02:45:19;;;;;;;12.25;8.68;;;19.40;99.90;;;;;;5059736;28;20181;-78
2023/06/22 02:47:45;;;;;;;12.80;8.38;;;19.30;99.90;;;;;;5060114;28;20665;-78
2023/06/22 02:50:11;;;;;;;11.48;8.82;;;19.30;99.90;;;;;;5059673;28;20174;-78
2023/06/22 02:52:36;;;;;;;11.30;8.27;;;19.30;99.90;;;;;;5077876;28;20537;-79
2023/06/22 02:55:02;;;;;;;13.45;8.48;;;19.20;99.90;;;;;;5077359;28;20166;-78
2023/06/22 02:57:28;;;;;;;11.15;8.68;;;19.20;99.90;;;;;;5059432;28;20284;-78
2023/06/22 02:59:55;;;;;;;12.75;8.40;;;19.30;99.90;;;;;;5078460;28;20169;-78
2023/06/22 03:02:21;;;;;;;12.50;8.60;;;19.30;99.90;;;;;;5060966;28;20184;-78
2023/06/22 03:04:48;;;;;;;11.48;8.02;;;19.30;99.90;;;;;;5078821;28;20158;-78
2023/06/22 03:07:15;;;;;;;10.90;7.97;;;19.20;99.90;;;;;;5078042;28;20232;-78
2023/06/22 03:09:42;;;;;;;12.65;8.30;;;19.20;99.90;;;;;;5059385;28;20293;-78
2023/06/22 03:12:08;;;;;;;14.30;8.45;;;19.10;99.90;;;;;;5059320;28;20180;-78
2023/06/22 03:14:34;;;;;;;12.57;8.65;;;19.10;99.90;;;;;;5076944;28;20252;-78
2023/06/22 03:17:03;;;;;;;13.93;8.45;;;19.10;99.90;;;;;;5077572;28;20194;-78
2023/06/22 03:19:31;;;;;;;13.38;9.18;;;19.00;99.90;;;;;;5059583;28;20615;-78
2023/06/22 03:22:01;;;;;;;11.57;9.23;;;19.00;99.90;;;;;;5076738;28;20201;-77
2023/06/22 03:24:29;;;;;;;12.15;8.85;;;18.90;99.90;;;;;;5076501;28;20231;-78
2023/06/22 03:26:56;;;;;;;12.95;9.07;;;18.80;99.90;;;;;;5058399;28;20252;-78
2023/06/22 03:29:22;;;;;;;11.98;9.27;;;18.80;99.90;;;;;;5076735;28;20201;-78
2023/06/22 03:31:48;;;;;;;12.65;9.13;;;18.70;99.90;;;;;;5076452;28;20543;-78
2023/06/22 03:34:13;;;;;;;12.18;8.63;;;18.80;99.90;;;;;;5077044;28;20239;-77
2023/06/22 03:36:39;;;;;;;11.75;8.40;;;18.80;99.90;;;;;;5050089;28;20210;-78
2023/06/22 03:39:05;;;;;;;12.25;9.48;;;18.80;99.90;;;;;;5058794;28;20178;-78
2023/06/22 03:41:31;;;;;;;13.85;9.30;;;18.80;99.90;;;;;;5058374;28;20181;-78
2023/06/22 03:43:56;;;;;;;15.55;8.82;;;18.90;99.90;;;;;;5057666;28;20182;-78
2023/06/22 03:46:22;;;;;;;12.55;8.45;;;18.90;99.90;;;;;;5076512;28;20228;-78
2023/06/22 03:48:48;;;;;;;15.70;8.50;;;18.90;99.90;;;;;;5076469;28;20339;-78
2023/06/22 03:51:13;;;;;;;10.43;8.43;;;18.90;99.90;;;;;;5076738;28;20219;-77
2023/06/22 03:53:39;;;;;;;11.82;8.43;;;19.00;99.90;;;;;;5058202;28;20215;-78
2023/06/22 03:56:05;;;;;;;14.90;9.15;;;19.00;99.90;;;;;;5076301;28;20662;-77
2023/06/22 03:58:32;;;;;;;16.38;8.70;;;19.00;99.90;;;;;;5058170;28;20189;-78
2023/06/22 04:00:59;;;;;;;12.15;9.02;;;19.00;99.90;;;;;;5076657;28;20257;-78
2023/06/22 04:03:25;;;;;;;16.48;9.55;;;19.00;99.90;;;;;;5076128;28;20170;-78
2023/06/22 04:05:51;;;;;;;14.95;10.23;;;18.90;99.90;;;;;;5076368;28;20301;-78
2023/06/22 04:08:18;;;;;;;16.02;9.02;;;18.90;99.90;;;;;;5058260;28;20292;-77
2023/06/22 04:10:44;;;;;;;11.60;8.90;;;18.90;99.90;;;;;;5057848;28;20192;-78
2023/06/22 04:13:10;;;;;;;11.93;8.95;;;18.90;99.90;;;;;;5057863;28;20182;-78
2023/06/22 04:15:36;;;;;;;11.38;9.02;;;19.00;99.90;;;;;;5075798;28;20205;-78
2023/06/22 04:18:02;;;;;;;15.82;9.02;;;19.00;99.90;;;;;;5075602;28;20173;-78
2023/06/22 04:20:27;;;;;;;14.13;9.65;;;19.00;99.90;;;;;;5057583;28;20181;-78
2023/06/22 04:22:54;;;;;;;12.00;9.05;;;19.00;99.90;;;;;;5075794;28;20162;-78
2023/06/22 04:25:20;;;;;;;12.90;8.70;;;19.00;99.90;;;;;;5057493;28;20178;-78
2023/06/22 04:27:47;;;;;;;14.13;9.25;;;19.00;99.90;;;;;;5075452;28;20654;-78
2023/06/22 04:30:15;;;;;;;14.02;9.57;;;19.00;99.90;;;;;;5058096;28;20173;-78
2023/06/22 04:32:40;;;;;;;14.65;9.48;;;19.00;99.90;;;;;;5057942;28;20723;-78
2023/06/22 04:35:07;;;;;;;17.15;9.48;;;19.00;99.90;;;;;;5058009;28;20217;-78
2023/06/22 04:37:33;;;;;;;16.17;9.50;;;19.10;99.90;;;;;;5075590;28;20205;-78
2023/06/22 04:39:59;;;;;;;17.25;10.48;;;19.10;99.90;;;;;;5058027;28;20181;-79
2023/06/22 04:42:28;;;;;;;15.40;10.30;;;19.20;99.90;;;;;;5058246;28;20188;-79
2023/06/22 04:44:54;;;;;;;15.73;10.52;;;19.30;99.90;;;;;;5058215;28;20178;-79
2023/06/22 04:47:20;;;;;;;18.13;10.05;;;19.30;99.90;;;;;;5075958;28;20197;-78
2023/06/22 04:49:46;;;;;;;17.10;10.10;;;19.30;99.90;;;;;;5075628;28;20560;-79
2023/06/22 04:52:13;;;;;;;16.20;11.05;;;19.30;99.90;;;;;;5058420;28;20174;-79
2023/06/22 04:54:47;;;;;;;18.55;10.77;;;19.30;99.90;;;;;;5075428;28;20237;-79
2023/06/22 04:57:14;;;;;;;13.95;11.13;;;19.30;99.90;;;;;;5075258;28;20193;-79
2023/06/22 04:59:41;;;;;;;17.75;10.68;;;19.20;99.90;;;;;;5057508;28;20190;-79
2023/06/22 05:02:08;;;;;;;17.38;11.52;;;19.20;99.90;;;;;;5057082;28;20186;-79
2023/06/22 05:04:35;;;;;;;17.02;11.88;;;19.20;99.90;;;;;;5075277;28;20506;-79
2023/06/22 05:07:02;;;;;;;15.57;11.63;;;19.30;99.90;;;;;;5066808;28;20206;-79
2023/06/22 05:09:29;;;;;;;23.35;14.05;;;19.30;99.90;;;;;;5075722;28;20235;-80
2023/06/22 05:11:56;;;;;;;22.60;15.48;;;19.20;99.90;;;;;;5076077;28;20552;-81
2023/06/22 05:14:22;;;;;;;25.98;16.92;;;19.10;99.90;;;;;;5058127;28;20186;-81
2023/06/22 05:16:49;;;;;;;24.00;16.70;;;19.00;99.90;;;;;;5075670;28;20674;-81
2023/06/22 05:19:14;;;;;;;25.92;18.63;;;18.80;99.90;;;;;;5057745;28;20228;-81
2023/06/22 05:21:40;;;;;;;26.98;19.40;;;18.60;99.90;;;;;;5075895;28;20597;-81
2023/06/22 05:24:06;;;;;;;26.05;17.75;;;18.50;99.90;;;;;;5059895;28;20181;-80
2023/06/22 05:26:34;;;;;;;26.77;19.65;;;18.40;99.90;;;;;;5077219;28;20193;-80
2023/06/22 05:29:00;;;;;;;27.27;19.92;;;18.40;99.90;;;;;;5059365;28;20606;-80
2023/06/22 05:31:27;;;;;;;28.05;20.88;;;18.40;99.90;;;;;;5077577;28;20166;-80
2023/06/22 05:33:54;;;;;;;25.27;20.90;;;18.40;99.90;;;;;;5059882;28;20542;-80
2023/06/22 05:36:21;;;;;;;24.27;20.17;;;18.30;99.90;;;;;;5062127;28;20206;-79
2023/06/22 05:38:46;;;;;;;25.65;21.20;;;18.40;99.90;;;;;;5080960;28;20249;-79
2023/06/22 05:41:12;;;;;;;25.20;20.77;;;18.30;99.90;;;;;;5060545;28;20657;-79
2023/06/22 05:43:38;;;;;;;27.02;21.80;;;18.20;99.90;;;;;;5077444;28;20282;-79
2023/06/22 05:46:04;;;;;;;26.20;21.92;;;18.20;99.90;;;;;;5077187;28;20200;-79
2023/06/22 05:48:30;;;;;;;26.33;20.42;;;18.20;99.90;;;;;;5077799;28;20228;-79
2023/06/22 05:50:56;;;;;;;32.22;22.52;;;18.20;99.90;;;;;;5082215;28;20178;-79
2023/06/22 05:53:22;;;;;;;23.77;19.52;;;18.20;99.90;;;;;;5081849;28;20173;-79
2023/06/22 05:55:48;;;;;;;31.02;22.10;;;18.30;99.90;;;;;;5063048;28;20208;-79
2023/06/22 05:58:14;;;;;;;33.28;24.08;;;18.30;99.90;;;;;;5063068;28;20596;-79
2023/06/22 06:00:41;;;;;;;30.48;22.75;;;18.20;99.90;;;;;;5079553;28;20178;-79
2023/06/22 06:03:08;;;;;;;34.20;23.65;;;18.20;99.90;;;;;;5060221;28;20184;-79
2023/06/22 06:05:34;;;;;;;29.50;22.25;;;18.20;99.90;;;;;;5061831;28;20274;-80
2023/06/22 06:08:01;;;;;;;31.95;22.83;;;18.20;99.90;;;;;;5042712;28;20214;-79
2023/06/22 06:10:29;;;;;;;29.58;22.80;;;18.20;99.90;;;;;;5043077;28;20174;-80
2023/06/22 06:12:55;;;;;;;29.45;23.50;;;18.20;99.90;;;;;;5061228;28;20211;-79
2023/06/22 06:15:21;;;;;;;30.92;23.70;;;18.20;99.90;;;;;;5042392;28;20177;-79
2023/06/22 06:17:52;;;;;;;29.42;24.02;;;18.20;99.90;;;;;;5043174;28;20178;-80
2023/06/22 06:20:23;;;;;;;28.40;22.55;;;18.30;99.90;;;;;;5060573;28;20181;-80
2023/06/22 06:22:50;;;;;;;28.95;22.20;;;18.30;99.90;;;;;;5060514;28;20166;-81
2023/06/22 06:25:16;;;;;;;29.58;22.80;;;18.40;99.90;;;;;;5041664;28;20174;-80
2023/06/22 06:27:43;;;;;;;35.75;24.67;;;18.40;99.90;;;;;;5041772;28;20202;-81
2023/06/22 06:30:14;;;;;;;32.45;25.13;;;18.50;99.90;;;;;;5040961;28;20205;-81
2023/06/22 06:32:40;;;;;;;29.85;22.70;;;18.50;99.90;;;;;;5059075;28;20163;-81
2023/06/22 06:35:07;;;;;;;33.15;25.63;;;18.60;99.90;;;;;;5063983;28;20212;-80
2023/06/22 06:37:37;;;;;;;34.28;26.23;;;18.70;99.90;;;;;;5078843;28;20204;-80
2023/06/22 06:40:05;;;;;;;36.95;26.75;;;18.70;99.90;;;;;;5078421;28;20196;-80
2023/06/22 06:42:31;;;;;;;36.22;27.23;;;18.60;99.90;;;;;;5078293;28;20185;-81
2023/06/22 06:44:57;;;;;;;35.17;26.80;;;18.60;99.90;;;;;;5060287;28;20588;-81
2023/06/22 06:47:23;;;;;;;34.47;26.38;;;18.70;99.90;;;;;;5060388;28;20208;-81
2023/06/22 06:49:48;;;;;;;34.65;27.88;;;18.80;99.90;;;;;;5059699;28;20636;-81
2023/06/22 06:52:14;;;;;;;35.70;27.65;;;18.80;99.90;;;;;;5059857;28;20212;-81
2023/06/22 06:54:41;;;;;;;38.72;29.40;;;18.90;99.90;;;;;;5077728;28;20185;-81
2023/06/22 06:57:10;;;;;;;33.42;25.50;;;18.90;99.90;;;;;;5077590;28;20186;-80
2023/06/22 06:59:36;;;;;;;35.83;28.80;;;19.00;99.90;;;;;;5059246;28;20178;-80
2023/06/22 07:02:02;;;;;;;32.33;25.05;;;19.10;99.90;;;;;;5058558;28;20642;-81
2023/06/22 07:04:27;;;;;;;32.55;26.42;;;19.20;99.90;;;;;;5077040;28;20642;-81
2023/06/22 07:06:53;;;;;;;36.38;26.40;;;19.30;99.90;;;;;;5077249;28;20201;-81
2023/06/22 07:09:19;;;;;;;37.35;28.83;;;19.40;99.90;;;;;;5058536;28;20717;-80
2023/06/22 07:11:44;;;;;;;36.60;28.70;;;19.40;99.90;;;;;;5058757;28;20699;-80
2023/06/22 07:14:10;;;;;;;31.05;25.05;;;19.40;99.90;;;;;;5077325;28;20166;-80
2023/06/22 07:16:36;;;;;;;32.90;28.25;;;19.40;99.90;;;;;;5058553;28;20567;-80
2023/06/22 07:19:02;;;;;;;30.23;24.73;;;19.40;99.90;;;;;;5061536;28;20178;-80
2023/06/22 07:21:28;;;;;;;36.53;27.83;;;19.40;99.90;;;;;;5080294;28;20253;-80
2023/06/22 07:23:54;;;;;;;33.05;27.08;;;19.40;99.90;;;;;;5080399;28;20208;-81
2023/06/22 07:26:20;;;;;;;33.95;27.35;;;19.40;99.90;;;;;;5081309;28;20193;-80
2023/06/22 07:28:46;;;;;;;25.45;21.90;;;19.40;99.90;;;;;;5081940;28;20221;-81
2023/06/22 07:31:11;;;;;;;27.75;22.73;;;19.50;99.90;;;;;;5083145;28;20204;-81
2023/06/22 07:33:38;;;;;;;28.75;24.35;;;19.60;99.90;;;;;;5082109;28;20166;-81
2023/06/22 07:36:07;;;;;;;29.77;23.02;;;19.60;99.90;;;;;;5063825;28;20212;-80
2023/06/22 07:38:34;;;;;;;25.48;21.10;;;19.60;99.90;;;;;;5064000;28;20182;-81
2023/06/22 07:41:00;;;;;;;28.33;23.10;;;19.70;99.90;;;;;;5080941;28;20686;-80
2023/06/22 07:43:26;;;;;;;33.08;26.10;;;19.80;99.90;;;;;;5063125;28;20216;-81
2023/06/22 07:45:52;;;;;;;30.42;25.80;;;19.90;99.90;;;;;;5062644;28;20273;-81
2023/06/22 07:48:21;;;;;;;36.20;29.00;;;19.90;99.90;;;;;;5063200;28;20265;-81
2023/06/22 07:50:46;;;;;;;34.90;28.50;;;20.00;99.90;;;;;;5081431;28;20162;-80
2023/06/22 07:53:12;;;;;;;36.35;28.45;;;20.00;99.90;;;;;;5062323;28;20174;-80
2023/06/22 07:55:38;;;;;;;37.95;29.98;;;20.10;99.90;;;;;;5063091;28;20174;-80
2023/06/22 07:58:03;;;;;;;36.72;27.48;;;20.20;99.90;;;;;;5080313;28;20177;-80
2023/06/22 08:00:29;;;;;;;31.83;28.35;;;20.40;99.90;;;;;;5062833;28;20713;-80
2023/06/22 08:02:56;;;;;;;29.73;25.13;;;20.60;99.90;;;;;;5079861;28;20184;-80
2023/06/22 08:05:21;;;;;;;31.10;24.77;;;20.80;99.90;;;;;;5077927;28;20638;-79
2023/06/22 08:07:47;;;;;;;29.65;25.85;;;20.90;99.90;;;;;;5078787;28;20235;-80
2023/06/22 08:10:13;;;;;;;29.73;26.00;;;21.00;99.90;;;;;;5078609;28;20193;-79
2023/06/22 08:12:40;;;;;;;36.28;30.45;;;21.10;99.90;;;;;;5060715;28;20181;-79
2023/06/22 08:15:07;;;;;;;36.70;27.33;;;21.20;99.90;;;;;;5078271;28;20170;-80
2023/06/22 08:17:33;;;;;;;28.25;23.35;;;21.30;99.90;;;;;;5078586;28;20212;-80
2023/06/22 08:19:59;;;;;;;34.80;29.45;;;21.40;99.90;;;;;;5078949;28;20173;-80
2023/06/22 08:22:25;;;;;;;31.25;25.52;;;21.50;99.90;;;;;;5059658;28;20239;-79
2023/06/22 08:24:50;;;;;;;32.17;27.42;;;21.70;99.90;;;;;;5079053;28;20166;-80
2023/06/22 08:27:18;;;;;;;30.83;26.88;;;21.90;99.90;;;;;;5059280;28;20201;-79
2023/06/22 08:29:45;;;;;;;29.30;23.70;;;21.90;99.90;;;;;;5058964;28;20210;-79
2023/06/22 08:32:12;;;;;;;27.75;23.77;;;22.00;99.90;;;;;;5059382;28;20229;-79
2023/06/22 08:34:42;;;;;;;27.63;24.60;;;22.10;99.90;;;;;;5059537;28;20169;-79
2023/06/22 08:37:08;;;;;;;33.78;27.70;;;22.30;99.90;;;;;;5060693;28;20202;-79
2023/06/22 08:39:34;;;;;;;32.40;25.70;;;22.40;99.90;;;;;;5079818;28;20615;-79
2023/06/22 08:42:00;;;;;;;28.75;24.33;;;22.50;99.90;;;;;;5062491;28;20283;-79
2023/06/22 08:44:26;;;;;;;25.27;20.70;;;22.40;99.90;;;;;;5061863;28;20249;-79
2023/06/22 08:46:52;;;;;;;26.52;22.33;;;22.40;99.90;;;;;;5060607;28;20209;-79
2023/06/22 08:49:17;;;;;;;26.65;22.88;;;22.50;99.90;;;;;;5059981;28;20555;-79
2023/06/22 08:51:45;;;;;;;27.52;23.88;;;22.50;99.90;;;;;;5077162;28;20174;-78
2023/06/22 08:54:11;;;;;;;23.17;20.50;;;22.60;99.90;;;;;;5078083;28;20192;-79
2023/06/22 08:56:37;;;;;;;21.13;18.90;;;22.70;99.90;;;;;;5062520;28;20572;-79
2023/06/22 08:59:02;;;;;;;24.30;20.52;;;22.70;99.90;;;;;;5061178;28;20678;-78
2023/06/22 09:01:28;;;;;;;24.58;19.80;;;22.90;99.90;;;;;;5078596;28;20174;-79
2023/06/22 09:03:55;;;;;;;28.27;21.80;;;23.00;99.90;;;;;;5060828;28;20182;-79
2023/06/22 09:06:21;;;;;;;27.80;22.75;;;23.20;99.90;;;;;;5062815;28;20220;-79
2023/06/22 09:08:48;;;;;;;21.52;19.33;;;23.30;99.90;;;;;;5079140;28;20204;-79
2023/06/22 09:11:14;;;;;;;23.60;20.02;;;23.40;99.90;;;;;;5078360;28;20738;-79
2023/06/22 09:13:40;;;;;;;22.58;19.05;;;23.60;99.90;;;;;;5077584;28;20198;-79
2023/06/22 09:16:06;;;;;;;20.75;17.77;;;23.70;99.90;;;;;;5060001;28;20221;-78
2023/06/22 09:18:33;;;;;;;19.58;17.42;;;23.90;99.90;;;;;;5061151;28;20192;-79
2023/06/22 09:20:59;;;;;;;17.65;15.70;;;24.10;99.90;;;;;;5061623;28;20331;-79
2023/06/22 09:23:25;;;;;;;17.75;15.93;;;24.30;99.90;;;;;;5061489;28;20205;-79
2023/06/22 09:25:51;;;;;;;18.08;16.17;;;24.50;99.90;;;;;;5060820;28;20213;-79
2023/06/22 09:28:17;;;;;;;20.80;17.20;;;24.70;99.90;;;;;;5058963;28;20201;-78
2023/06/22 09:30:46;;;;;;;20.98;17.73;;;24.90;99.90;;;;;;5060265;28;20169;-79
2023/06/22 09:33:11;;;;;;;20.17;17.42;;;25.10;99.90;;;;;;5059339;28;20213;-78
2023/06/22 09:35:37;;;;;;;20.73;16.35;;;25.10;99.90;;;;;;5077421;28;20177;-79
2023/06/22 09:38:03;;;;;;;18.95;16.25;;;25.20;99.90;;;;;;5058607;28;20190;-78
2023/06/22 09:40:29;;;;;;;18.42;16.52;;;25.30;99.90;;;;;;5056353;28;20199;-80
2023/06/22 09:42:54;;;;;;;20.25;16.77;;;25.40;99.90;;;;;;5057057;28;20159;-79
2023/06/22 09:45:20;;;;;;;19.92;17.42;;;25.40;99.90;;;;;;5038684;28;20174;-77
2023/06/22 09:47:46;;;;;;;18.30;16.27;;;25.20;99.90;;;;;;5055841;28;20201;-78
2023/06/22 09:50:11;;;;;;;17.15;14.50;;;25.10;99.90;;;;;;5057581;28;20197;-79
2023/06/22 09:52:38;;;;;;;13.82;12.32;;;25.20;99.90;;;;;;5045383;28;20180;-78
2023/06/22 09:55:06;;;;;;;15.88;13.43;;;25.20;99.90;;;;;;5064641;28;20166;-79
2023/06/22 09:57:32;;;;;;;16.63;12.43;;;25.10;99.90;;;;;;5041500;28;20198;-76
2023/06/22 09:59:58;;;;;;;15.55;12.50;;;25.10;99.90;;;;;;5057163;28;20247;-76
2023/06/22 10:02:24;;;;;;;15.15;12.82;;;25.00;99.90;;;;;;5059347;28;20206;-75
2023/06/22 10:04:49;;;;;;;15.63;11.50;;;25.00;99.90;;;;;;5054764;28;20631;-75
2023/06/22 10:07:15;;;;;;;12.05;10.35;;;24.90;99.90;;;;;;5050426;28;20237;-74
2023/06/22 10:09:41;;;;;;;12.75;11.45;;;24.90;99.90;;;;;;5056397;28;20273;-75
2023/06/22 10:12:08;;;;;;;14.50;11.88;;;24.90;99.90;;;;;;5075112;28;20169;-74
2023/06/22 10:14:33;;;;;;;15.15;11.40;;;24.80;99.90;;;;;;5056594;28;20176;-73
2023/06/22 10:16:59;;;;;;;13.77;11.18;;;24.90;99.90;;;;;;5074367;28;20189;-75
2023/06/22 10:19:26;;;;;;;15.20;13.05;;;25.00;99.90;;;;;;5075206;28;20169;-75
2023/06/22 10:21:51;;;;;;;14.55;11.77;;;25.00;99.90;;;;;;5073875;28;20196;-74
2023/06/22 10:24:17;;;;;;;13.75;11.55;;;25.00;99.90;;;;;;5074297;28;20173;-75
2023/06/22 10:26:43;;;;;;;16.05;12.32;;;25.00;99.90;;;;;;5073812;28;20280;-75
2023/06/22 10:29:09;;;;;;;16.17;13.18;;;25.10;99.90;;;;;;5055851;28;20205;-76
2023/06/22 10:31:34;;;;;;;13.98;11.40;;;25.20;99.90;;;;;;5056601;28;20170;-75
2023/06/22 10:34:00;;;;;;;12.80;10.63;;;25.20;99.90;;;;;;5075677;28;20170;-76
2023/06/22 10:36:26;;;;;;;13.60;11.20;;;25.30;99.90;;;;;;5056365;28;20692;-76
2023/06/22 10:38:53;;;;;;;12.88;10.77;;;25.40;99.90;;;;;;5074812;28;20205;-75
2023/06/22 10:41:19;;;;;;;12.25;9.52;;;25.40;99.90;;;;;;5075578;28;20202;-77
2023/06/22 10:43:44;;;;;;;11.02;9.27;;;25.40;99.90;;;;;;5074441;28;20656;-76
2023/06/22 10:46:10;;;;;;;13.15;9.68;;;25.40;99.90;;;;;;5073788;28;20198;-76
2023/06/22 10:48:36;;;;;;;13.57;11.88;;;25.40;99.90;;;;;;5073722;28;20205;-74
2023/06/22 10:51:02;;;;;;;15.52;12.90;;;25.40;99.90;;;;;;5073954;28;20184;-76
2023/06/22 10:53:28;;;;;;;11.40;10.20;;;25.20;99.90;;;;;;5075079;28;20208;-76
2023/06/22 10:55:54;;;;;;;11.93;10.20;;;25.10;99.90;;;;;;5078330;28;20552;-77
2023/06/22 10:58:20;;;;;;;14.85;11.13;;;24.90;99.90;;;;;;5077278;28;20567;-77
2023/06/22 11:00:46;;;;;;;11.93;10.55;;;24.80;99.90;;;;;;5077412;28;20269;-77
2023/06/22 11:03:13;;;;;;;14.05;11.20;;;24.70;99.90;;;;;;5077755;28;20237;-75
2023/06/22 11:05:40;;;;;;;13.30;10.80;;;24.60;99.90;;;;;;5077909;28;20178;-77
2023/06/22 11:08:05;;;;;;;14.52;11.63;;;24.50;99.90;;;;;;5057379;28;20174;-76
2023/06/22 11:10:31;;;;;;;13.10;11.70;;;24.50;99.90;;;;;;5058359;28;20184;-77
2023/06/22 11:12:57;;;;;;;13.65;11.40;;;24.30;99.90;;;;;;5056568;28;20544;-76
2023/06/22 11:15:24;;;;;;;13.07;10.32;;;24.20;99.90;;;;;;5057245;28;20170;-76
2023/06/22 11:17:50;;;;;;;14.73;11.88;;;24.10;99.90;;;;;;5039866;28;20202;-77
2023/06/22 11:20:16;;;;;;;12.68;10.95;;;24.00;99.90;;;;;;5058795;28;20162;-76
2023/06/22 11:22:42;;;;;;;13.00;11.63;;;23.90;99.90;;;;;;5058009;28;20207;-75
2023/06/22 11:25:08;;;;;;;16.58;13.15;;;23.90;99.90;;;;;;5039046;28;20220;-75
2023/06/22 11:27:34;;;;;;;15.00;10.98;;;23.70;99.90;;;;;;5038881;28;20198;-75
2023/06/22 11:30:00;;;;;;;13.85;11.38;;;23.60;99.90;;;;;;5038592;28;20615;-75
2023/06/22 11:32:26;;;;;;;17.42;13.63;;;23.60;99.90;;;;;;5056528;28;20154;-75
2023/06/22 11:34:52;;;;;;;16.40;14.57;;;23.50;99.90;;;;;;5038856;28;20193;-75
2023/06/22 11:37:17;;;;;;;18.05;14.40;;;23.40;99.90;;;;;;5058677;28;20274;-75
2023/06/22 11:39:43;;;;;;;17.23;13.05;;;23.30;99.90;;;;;;5076758;28;20166;-75
2023/06/22 11:42:10;;;;;;;17.13;14.95;;;23.20;99.90;;;;;;5076058;28;20170;-75
2023/06/22 11:44:36;;;;;;;17.08;14.35;;;23.20;99.90;;;;;;5058265;28;20182;-75
2023/06/22 11:47:04;;;;;;;15.15;13.45;;;23.10;99.90;;;;;;5058254;28;20624;-75
2023/06/22 11:49:32;;;;;;;18.30;15.77;;;23.00;99.90;;;;;;5058079;28;20205;-75
2023/06/22 11:51:58;;;;;;;20.40;16.98;;;23.00;99.90;;;;;;5076363;28;20642;-75
2023/06/22 11:54:24;;;;;;;20.60;18.15;;;22.90;99.90;;;;;;5076118;28;20227;-75
2023/06/22 11:56:50;;;;;;;21.13;17.40;;;22.80;99.90;;;;;;5060118;28;20247;-77
2023/06/22 11:59:16;;;;;;;20.17;17.42;;;22.70;99.90;;;;;;5078330;28;20158;-77
2023/06/22 12:01:41;;;;;;;20.98;18.40;;;22.60;99.90;;;;;;5076627;28;20166;-78
2023/06/22 12:04:07;;;;;;;22.13;17.63;;;22.50;99.90;;;;;;5077213;28;20211;-77
2023/06/22 12:06:35;;;;;;;23.58;19.85;;;22.50;99.90;;;;;;5076266;28;20236;-78
2023/06/22 12:09:00;;;;;;;22.63;19.40;;;22.40;99.90;;;;;;5058014;28;20201;-77
2023/06/22 12:11:26;;;;;;;23.50;20.25;;;22.30;99.90;;;;;;5075625;28;20178;-77
2023/06/22 12:13:52;;;;;;;24.75;20.42;;;22.20;99.90;;;;;;5058343;28;20199;-78
2023/06/22 12:16:18;;;;;;;27.67;21.05;;;22.10;99.90;;;;;;5075712;28;20537;-77
2023/06/22 12:18:44;;;;;;;24.38;20.45;;;22.00;99.90;;;;;;5059748;28;20174;-78
2023/06/22 12:21:10;;;;;;;24.38;20.38;;;21.90;99.90;;;;;;5076884;28;20559;-77
2023/06/22 12:23:35;;;;;;;27.90;22.23;;;21.80;99.90;;;;;;5075960;28;20174;-78
2023/06/22 12:26:01;;;;;;;27.20;21.80;;;21.70;99.90;;;;;;5058291;28;20209;-77
2023/06/22 12:28:27;;;;;;;29.45;23.35;;;21.60;99.90;;;;;;5075895;28;20193;-77